sensor_id;sensor_type;location;lat;lon;timestamp;temperature;humidity
212;DHT22;16228;48.800;9.002;2023-08-12T00:01:37;18.40;96.90
212;DHT22;16228;48.800;9.002;2023-08-12T00:04:05;18.40;96.90
212;DHT22;16228;48.800;9.002;2023-08-12T00:06:32;18.40;96.90
212;DHT22;16228;48.800;9.002;2023-08-12T00:08:59;18.50;96.90
212;DHT22;16228;48.800;9.002;2023-08-12T00:11:25;18.50;96.90
212;DHT22;16228;48.800;9.002;2023-08-12T00:13:54;18.50;96.90
212;DHT22;16228;48.800;9.002;2023-08-12T00:16:21;18.50;96.90
212;DHT22;16228;48.800;9.002;2023-08-12T00:18:48;18.60;96.90
212;DHT22;16228;48.800;9.002;2023-08-12T00:21:15;18.40;96.90
212;DHT22;16228;48.800;9.002;2023-08-12T00:23:42;18.40;96.90
212;DHT22;16228;48.800;9.002;2023-08-12T00:26:10;18.30;96.90
212;DHT22;16228;48.800;9.002;2023-08-12T00:28:37;18.30;96.90
212;DHT22;16228;48.800;9.002;2023-08-12T00:31:05;18.30;96.90
212;DHT22;16228;48.800;9.002;2023-08-12T00:33:32;18.20;96.90
212;DHT22;16228;48.800;9.002;2023-08-12T00:35:59;18.10;96.90
212;DHT22;16228;48.800;9.002;2023-08-12T00:38:26;18.10;96.90
212;DHT22;16228;48.800;9.002;2023-08-12T00:40:53;18.10;96.90
212;DHT22;16228;48.800;9.002;2023-08-12T00:43:20;18.10;96.90
212;DHT22;16228;48.800;9.002;2023-08-12T00:45:47;18.10;96.90
212;DHT22;16228;48.800;9.002;2023-08-12T00:48:17;18.10;96.90
212;DHT22;16228;48.800;9.002;2023-08-12T00:50:45;18.10;96.90
212;DHT22;16228;48.800;9.002;2023-08-12T00:53:13;18.00;96.90
212;DHT22;16228;48.800;9.002;2023-08-12T00:55:41;18.00;96.90
212;DHT22;16228;48.800;9.002;2023-08-12T00:58:08;18.00;96.90
212;DHT22;16228;48.800;9.002;2023-08-12T01:00:35;17.90;96.90
212;DHT22;16228;48.800;9.002;2023-08-12T01:03:03;17.80;96.90
212;DHT22;16228;48.800;9.002;2023-08-12T01:05:33;17.80;96.90
212;DHT22;16228;48.800;9.002;2023-08-12T01:08:00;17.80;96.90
212;DHT22;16228;48.800;9.002;2023-08-12T01:10:33;17.80;96.90
212;DHT22;16228;48.800;9.002;2023-08-12T01:13:07;17.80;96.90
212;DHT22;16228;48.800;9.002;2023-08-12T01:15:38;17.80;96.90
212;DHT22;16228;48.800;9.002;2023-08-12T01:18:06;17.80;96.90
212;DHT22;16228;48.800;9.002;2023-08-12T01:20:36;17.90;96.90
212;DHT22;16228;48.800;9.002;2023-08-12T01:23:10;17.90;96.90
212;DHT22;16228;48.800;9.002;2023-08-12T01:25:37;17.90;96.90
212;DHT22;16228;48.800;9.002;2023-08-12T01:28:05;17.90;96.90
212;DHT22;16228;48.800;9.002;2023-08-12T01:30:33;17.80;96.90
212;DHT22;16228;48.800;9.002;2023-08-12T01:33:06;17.90;96.90
212;DHT22;16228;48.800;9.002;2023-08-12T01:35:39;17.90;96.90
212;DHT22;16228;48.800;9.002;2023-08-12T01:38:09;17.90;96.90
212;DHT22;16228;48.800;9.002;2023-08-12T01:40:38;17.90;96.90
212;DHT22;16228;48.800;9.002;2023-08-12T01:43:06;17.90;96.90
212;DHT22;16228;48.800;9.002;2023-08-12T01:45:34;17.90;96.90
212;DHT22;16228;48.800;9.002;2023-08-12T01:48:01;17.90;96.90
212;DHT22;16228;48.800;9.002;2023-08-12T01:50:28;17.90;96.90
212;DHT22;16228;48.800;9.002;2023-08-12T01:52:56;17.80;96.90
212;DHT22;16228;48.800;9.002;2023-08-12T01:55:25;17.80;96.90
212;DHT22;16228;48.800;9.002;2023-08-12T01:57:52;17.80;96.90
212;DHT22;16228;48.800;9.002;2023-08-12T02:00:19;17.70;96.90
212;DHT22;16228;48.800;9.002;2023-08-12T02:02:46;17.70;96.90
212;DHT22;16228;48.800;9.002;2023-08-12T02:05:13;17.80;96.90
212;DHT22;16228;48.800;9.002;2023-08-12T02:07:40;17.90;96.90
212;DHT22;16228;48.800;9.002;2023-08-12T02:10:08;17.90;96.90
212;DHT22;16228;48.800;9.002;2023-08-12T02:12:36;18.00;96.90
212;DHT22;16228;48.800;9.002;2023-08-12T02:15:04;18.10;96.90
212;DHT22;16228;48.800;9.002;2023-08-12T02:17:31;18.20;96.90
212;DHT22;16228;48.800;9.002;2023-08-12T02:19:58;18.20;96.90
212;DHT22;16228;48.800;9.002;2023-08-12T02:22:25;18.30;96.90
212;DHT22;16228;48.800;9.002;2023-08-12T02:24:52;18.30;96.90
212;DHT22;16228;48.800;9.002;2023-08-12T02:27:19;18.20;96.90
212;DHT22;16228;48.800;9.002;2023-08-12T02:29:47;18.20;96.90
212;DHT22;16228;48.800;9.002;2023-08-12T02:32:14;18.20;96.90
212;DHT22;16228;48.800;9.002;2023-08-12T02:34:41;18.30;96.90
212;DHT22;16228;48.800;9.002;2023-08-12T02:37:08;18.30;96.90
212;DHT22;16228;48.800;9.002;2023-08-12T02:39:35;18.30;96.90
212;DHT22;16228;48.800;9.002;2023-08-12T02:42:02;18.30;96.90
212;DHT22;16228;48.800;9.002;2023-08-12T02:44:29;18.30;96.90
212;DHT22;16228;48.800;9.002;2023-08-12T02:46:58;18.20;96.90
212;DHT22;16228;48.800;9.002;2023-08-12T02:49:24;18.20;96.90
212;DHT22;16228;48.800;9.002;2023-08-12T02:51:52;18.20;96.90
212;DHT22;16228;48.800;9.002;2023-08-12T02:54:19;18.20;96.90
212;DHT22;16228;48.800;9.002;2023-08-12T02:56:45;18.20;96.90
212;DHT22;16228;48.800;9.002;2023-08-12T02:59:12;18.30;96.90
212;DHT22;16228;48.800;9.002;2023-08-12T03:01:40;18.30;96.90
212;DHT22;16228;48.800;9.002;2023-08-12T03:04:09;18.30;96.90
212;DHT22;16228;48.800;9.002;2023-08-12T03:06:36;18.40;96.90
212;DHT22;16228;48.800;9.002;2023-08-12T03:09:03;18.40;96.90
212;DHT22;16228;48.800;9.002;2023-08-12T03:11:30;18.40;96.90
212;DHT22;16228;48.800;9.002;2023-08-12T03:13:57;18.50;96.90
212;DHT22;16228;48.800;9.002;2023-08-12T03:16:24;18.50;96.90
212;DHT22;16228;48.800;9.002;2023-08-12T03:18:51;18.50;96.90
212;DHT22;16228;48.800;9.002;2023-08-12T03:21:20;18.60;96.90
212;DHT22;16228;48.800;9.002;2023-08-12T03:23:47;18.70;96.90
212;DHT22;16228;48.800;9.002;2023-08-12T03:26:14;18.80;96.90
212;DHT22;16228;48.800;9.002;2023-08-12T03:28:41;18.80;96.90
212;DHT22;16228;48.800;9.002;2023-08-12T03:31:07;18.80;96.90
212;DHT22;16228;48.800;9.002;2023-08-12T03:33:34;18.80;96.90
212;DHT22;16228;48.800;9.002;2023-08-12T03:36:01;18.80;96.90
212;DHT22;16228;48.800;9.002;2023-08-12T03:38:30;18.80;96.90
212;DHT22;16228;48.800;9.002;2023-08-12T03:40:57;18.80;96.90
212;DHT22;16228;48.800;9.002;2023-08-12T03:43:24;18.80;96.90
212;DHT22;16228;48.800;9.002;2023-08-12T03:45:51;18.80;96.90
212;DHT22;16228;48.800;9.002;2023-08-12T03:48:18;18.90;96.90
212;DHT22;16228;48.800;9.002;2023-08-12T03:50:45;18.90;96.90
212;DHT22;16228;48.800;9.002;2023-08-12T03:53:13;19.00;96.90
212;DHT22;16228;48.800;9.002;2023-08-12T03:55:42;19.00;96.90
212;DHT22;16228;48.800;9.002;2023-08-12T03:58:09;19.00;96.90
212;DHT22;16228;48.800;9.002;2023-08-12T04:00:40;19.00;96.90
212;DHT22;16228;48.800;9.002;2023-08-12T04:03:08;19.00;96.90
212;DHT22;16228;48.800;9.002;2023-08-12T04:05:35;19.00;96.90
212;DHT22;16228;48.800;9.002;2023-08-12T04:08:02;19.00;96.90
212;DHT22;16228;48.800;9.002;2023-08-12T04:10:30;19.00;96.90
212;DHT22;16228;48.800;9.002;2023-08-12T04:12:58;19.10;96.90
212;DHT22;16228;48.800;9.002;2023-08-12T04:15:25;19.10;96.90
212;DHT22;16228;48.800;9.002;2023-08-12T04:17:52;19.10;96.90
212;DHT22;16228;48.800;9.002;2023-08-12T04:20:19;19.10;96.90
212;DHT22;16228;48.800;9.002;2023-08-12T04:22:48;19.20;96.90
212;DHT22;16228;48.800;9.002;2023-08-12T04:25:15;19.20;96.90
212;DHT22;16228;48.800;9.002;2023-08-12T04:27:42;19.20;96.90
212;DHT22;16228;48.800;9.002;2023-08-12T04:30:11;19.30;96.90
212;DHT22;16228;48.800;9.002;2023-08-12T04:32:39;19.30;96.90
212;DHT22;16228;48.800;9.002;2023-08-12T04:35:07;19.30;96.90
212;DHT22;16228;48.800;9.002;2023-08-12T04:37:35;19.30;96.90
212;DHT22;16228;48.800;9.002;2023-08-12T04:40:02;19.40;96.90
212;DHT22;16228;48.800;9.002;2023-08-12T04:42:30;19.40;96.90
212;DHT22;16228;48.800;9.002;2023-08-12T04:44:57;19.40;96.90
212;DHT22;16228;48.800;9.002;2023-08-12T04:47:25;19.40;96.90
212;DHT22;16228;48.800;9.002;2023-08-12T04:49:52;19.50;96.90
212;DHT22;16228;48.800;9.002;2023-08-12T04:52:19;19.50;96.90
212;DHT22;16228;48.800;9.002;2023-08-12T04:54:47;19.50;96.90
212;DHT22;16228;48.800;9.002;2023-08-12T04:57:14;19.50;96.90
212;DHT22;16228;48.800;9.002;2023-08-12T04:59:41;19.60;96.90
212;DHT22;16228;48.800;9.002;2023-08-12T05:02:08;19.70;96.90
212;DHT22;16228;48.800;9.002;2023-08-12T05:04:36;19.70;96.90
212;DHT22;16228;48.800;9.002;2023-08-12T05:07:03;19.70;96.90
212;DHT22;16228;48.800;9.002;2023-08-12T05:09:30;19.70;96.90
212;DHT22;16228;48.800;9.002;2023-08-12T05:11:57;19.70;96.90
212;DHT22;16228;48.800;9.002;2023-08-12T05:14:24;19.80;96.90
212;DHT22;16228;48.800;9.002;2023-08-12T05:16:51;19.80;96.90
212;DHT22;16228;48.800;9.002;2023-08-12T05:19:18;19.80;96.90
212;DHT22;16228;48.800;9.002;2023-08-12T05:21:46;19.90;96.90
212;DHT22;16228;48.800;9.002;2023-08-12T05:24:13;20.00;96.90
212;DHT22;16228;48.800;9.002;2023-08-12T05:26:41;20.00;96.90
212;DHT22;16228;48.800;9.002;2023-08-12T05:29:07;20.00;96.90
212;DHT22;16228;48.800;9.002;2023-08-12T05:31:34;20.00;96.90
212;DHT22;16228;48.800;9.002;2023-08-12T05:34:01;20.00;96.90
212;DHT22;16228;48.800;9.002;2023-08-12T05:36:29;20.00;96.90
212;DHT22;16228;48.800;9.002;2023-08-12T05:38:57;20.10;96.90
212;DHT22;16228;48.800;9.002;2023-08-12T05:41:24;20.00;96.90
212;DHT22;16228;48.800;9.002;2023-08-12T05:43:51;20.10;96.90
212;DHT22;16228;48.800;9.002;2023-08-12T05:46:18;20.20;96.90
212;DHT22;16228;48.800;9.002;2023-08-12T05:48:45;20.20;96.90
212;DHT22;16228;48.800;9.002;2023-08-12T05:51:12;20.30;96.90
212;DHT22;16228;48.800;9.002;2023-08-12T05:53:39;20.40;96.90
212;DHT22;16228;48.800;9.002;2023-08-12T05:56:07;20.50;96.90
212;DHT22;16228;48.800;9.002;2023-08-12T05:58:34;20.60;96.90
212;DHT22;16228;48.800;9.002;2023-08-12T06:01:01;20.60;96.90
212;DHT22;16228;48.800;9.002;2023-08-12T06:03:28;20.60;96.90
212;DHT22;16228;48.800;9.002;2023-08-12T06:05:55;20.60;96.90
212;DHT22;16228;48.800;9.002;2023-08-12T06:08:22;20.50;96.90
212;DHT22;16228;48.800;9.002;2023-08-12T06:10:49;20.60;96.90
212;DHT22;16228;48.800;9.002;2023-08-12T06:13:17;20.70;96.90
212;DHT22;16228;48.800;9.002;2023-08-12T06:15:44;20.80;96.90
212;DHT22;16228;48.800;9.002;2023-08-12T06:18:11;20.90;96.90
212;DHT22;16228;48.800;9.002;2023-08-12T06:20:38;21.00;96.90
212;DHT22;16228;48.800;9.002;2023-08-12T06:23:05;21.10;96.90
212;DHT22;16228;48.800;9.002;2023-08-12T06:25:32;21.20;96.90
212;DHT22;16228;48.800;9.002;2023-08-12T06:28:01;21.40;96.90
212;DHT22;16228;48.800;9.002;2023-08-12T06:30:31;21.70;96.90
212;DHT22;16228;48.800;9.002;2023-08-12T06:32:58;22.00;96.90
212;DHT22;16228;48.800;9.002;2023-08-12T06:35:25;22.20;96.90
212;DHT22;16228;48.800;9.002;2023-08-12T06:37:52;22.40;96.90
212;DHT22;16228;48.800;9.002;2023-08-12T06:40:19;22.70;96.90
212;DHT22;16228;48.800;9.002;2023-08-12T06:42:46;23.20;96.90
212;DHT22;16228;48.800;9.002;2023-08-12T06:45:13;23.70;96.90
212;DHT22;16228;48.800;9.002;2023-08-12T06:47:41;23.90;96.90
212;DHT22;16228;48.800;9.002;2023-08-12T06:50:09;24.00;96.90
212;DHT22;16228;48.800;9.002;2023-08-12T06:52:36;24.10;96.90
212;DHT22;16228;48.800;9.002;2023-08-12T06:55:03;24.20;96.90
212;DHT22;16228;48.800;9.002;2023-08-12T06:57:30;24.50;96.90
212;DHT22;16228;48.800;9.002;2023-08-12T06:59:57;24.80;96.90
212;DHT22;16228;48.800;9.002;2023-08-12T07:02:24;25.00;96.90
212;DHT22;16228;48.800;9.002;2023-08-12T07:04:52;25.10;96.90
212;DHT22;16228;48.800;9.002;2023-08-12T07:07:19;25.30;96.90
212;DHT22;16228;48.800;9.002;2023-08-12T07:09:46;25.30;96.90
212;DHT22;16228;48.800;9.002;2023-08-12T07:12:13;25.40;96.90
212;DHT22;16228;48.800;9.002;2023-08-12T07:14:40;25.60;96.90
212;DHT22;16228;48.800;9.002;2023-08-12T07:17:07;25.60;96.90
212;DHT22;16228;48.800;9.002;2023-08-12T07:19:34;26.20;96.90
212;DHT22;16228;48.800;9.002;2023-08-12T07:22:03;27.50;96.90
212;DHT22;16228;48.800;9.002;2023-08-12T07:24:30;29.10;96.90
212;DHT22;16228;48.800;9.002;2023-08-12T07:26:56;30.60;96.90
212;DHT22;16228;48.800;9.002;2023-08-12T07:29:23;32.10;94.70
212;DHT22;16228;48.800;9.002;2023-08-12T07:31:51;33.10;93.30
212;DHT22;16228;48.800;9.002;2023-08-12T07:34:18;33.60;91.10
212;DHT22;16228;48.800;9.002;2023-08-12T07:36:45;34.20;88.20
212;DHT22;16228;48.800;9.002;2023-08-12T07:39:14;35.00;86.40
212;DHT22;16228;48.800;9.002;2023-08-12T07:41:41;36.00;82.70
212;DHT22;16228;48.800;9.002;2023-08-12T07:44:08;36.80;81.80
212;DHT22;16228;48.800;9.002;2023-08-12T07:46:35;37.60;77.60
212;DHT22;16228;48.800;9.002;2023-08-12T07:49:02;37.50;74.80
212;DHT22;16228;48.800;9.002;2023-08-12T07:51:29;37.00;80.50
212;DHT22;16228;48.800;9.002;2023-08-12T07:53:56;37.00;79.90
212;DHT22;16228;48.800;9.002;2023-08-12T07:56:25;37.50;77.80
212;DHT22;16228;48.800;9.002;2023-08-12T07:58:51;38.00;72.40
212;DHT22;16228;48.800;9.002;2023-08-12T08:01:18;38.00;73.70
212;DHT22;16228;48.800;9.002;2023-08-12T08:03:45;37.90;76.30
212;DHT22;16228;48.800;9.002;2023-08-12T08:06:12;38.00;77.30
212;DHT22;16228;48.800;9.002;2023-08-12T08:08:39;38.60;73.00
212;DHT22;16228;48.800;9.002;2023-08-12T08:11:06;39.10;71.70
212;DHT22;16228;48.800;9.002;2023-08-12T08:13:35;39.30;75.10
212;DHT22;16228;48.800;9.002;2023-08-12T08:16:02;39.10;71.20
212;DHT22;16228;48.800;9.002;2023-08-12T08:18:28;38.50;77.10
212;DHT22;16228;48.800;9.002;2023-08-12T08:20:55;39.00;74.20
212;DHT22;16228;48.800;9.002;2023-08-12T08:23:22;39.40;70.20
212;DHT22;16228;48.800;9.002;2023-08-12T08:25:49;40.20;69.60
212;DHT22;16228;48.800;9.002;2023-08-12T08:28:16;40.80;69.60
212;DHT22;16228;48.800;9.002;2023-08-12T08:30:45;41.30;68.60
212;DHT22;16228;48.800;9.002;2023-08-12T08:33:12;41.60;67.10
212;DHT22;16228;48.800;9.002;2023-08-12T08:35:39;42.10;66.40
212;DHT22;16228;48.800;9.002;2023-08-12T08:38:06;42.30;64.40
212;DHT22;16228;48.800;9.002;2023-08-12T08:40:34;42.40;65.10
212;DHT22;16228;48.800;9.002;2023-08-12T08:43:02;42.40;65.30
212;DHT22;16228;48.800;9.002;2023-08-12T08:45:32;42.70;63.70
212;DHT22;16228;48.800;9.002;2023-08-12T08:48:02;42.50;62.60
212;DHT22;16228;48.800;9.002;2023-08-12T08:50:30;42.60;65.10
212;DHT22;16228;48.800;9.002;2023-08-12T08:52:57;42.50;65.10
212;DHT22;16228;48.800;9.002;2023-08-12T08:55:25;43.00;65.00
212;DHT22;16228;48.800;9.002;2023-08-12T08:57:52;43.60;66.40
212;DHT22;16228;48.800;9.002;2023-08-12T09:00:19;43.80;64.00
212;DHT22;16228;48.800;9.002;2023-08-12T09:02:47;44.00;62.50
212;DHT22;16228;48.800;9.002;2023-08-12T09:05:16;44.40;59.20
212;DHT22;16228;48.800;9.002;2023-08-12T09:07:44;44.10;65.40
212;DHT22;16228;48.800;9.002;2023-08-12T09:10:11;43.60;65.10
212;DHT22;16228;48.800;9.002;2023-08-12T09:12:39;43.70;64.40
212;DHT22;16228;48.800;9.002;2023-08-12T09:15:07;44.00;62.90
212;DHT22;16228;48.800;9.002;2023-08-12T09:17:35;44.30;62.50
212;DHT22;16228;48.800;9.002;2023-08-12T09:20:03;44.60;58.50
212;DHT22;16228;48.800;9.002;2023-08-12T09:22:35;44.70;60.30
212;DHT22;16228;48.800;9.002;2023-08-12T09:25:03;44.50;56.60
212;DHT22;16228;48.800;9.002;2023-08-12T09:27:30;44.60;62.00
212;DHT22;16228;48.800;9.002;2023-08-12T09:29:58;45.20;62.10
212;DHT22;16228;48.800;9.002;2023-08-12T09:32:25;45.70;60.30
212;DHT22;16228;48.800;9.002;2023-08-12T09:34:53;46.30;59.90
212;DHT22;16228;48.800;9.002;2023-08-12T09:37:22;46.60;57.80
212;DHT22;16228;48.800;9.002;2023-08-12T09:39:52;44.80;59.10
212;DHT22;16228;48.800;9.002;2023-08-12T09:42:19;43.40;62.70
212;DHT22;16228;48.800;9.002;2023-08-12T09:44:46;41.80;61.70
212;DHT22;16228;48.800;9.002;2023-08-12T09:47:13;40.40;64.90
212;DHT22;16228;48.800;9.002;2023-08-12T09:49:41;39.00;66.70
212;DHT22;16228;48.800;9.002;2023-08-12T09:52:08;37.70;67.90
212;DHT22;16228;48.800;9.002;2023-08-12T09:54:35;36.30;67.20
212;DHT22;16228;48.800;9.002;2023-08-12T09:57:05;35.30;72.80
212;DHT22;16228;48.800;9.002;2023-08-12T09:59:34;34.30;76.00
212;DHT22;16228;48.800;9.002;2023-08-12T10:02:02;33.50;76.60
212;DHT22;16228;48.800;9.002;2023-08-12T10:04:37;32.80;78.00
212;DHT22;16228;48.800;9.002;2023-08-12T10:07:05;32.70;78.90
212;DHT22;16228;48.800;9.002;2023-08-12T10:09:33;32.80;80.80
212;DHT22;16228;48.800;9.002;2023-08-12T10:12:01;33.30;80.70
212;DHT22;16228;48.800;9.002;2023-08-12T10:14:29;33.70;77.60
212;DHT22;16228;48.800;9.002;2023-08-12T10:16:57;33.70;77.00
212;DHT22;16228;48.800;9.002;2023-08-12T10:19:25;33.80;78.50
212;DHT22;16228;48.800;9.002;2023-08-12T10:21:55;34.20;77.40
212;DHT22;16228;48.800;9.002;2023-08-12T10:24:23;34.80;75.80
212;DHT22;16228;48.800;9.002;2023-08-12T10:26:51;35.30;76.90
212;DHT22;16228;48.800;9.002;2023-08-12T10:29:19;35.50;76.70
212;DHT22;16228;48.800;9.002;2023-08-12T10:31:48;35.50;74.20
212;DHT22;16228;48.800;9.002;2023-08-12T10:34:19;35.80;74.10
212;DHT22;16228;48.800;9.002;2023-08-12T10:36:47;36.30;71.40
212;DHT22;16228;48.800;9.002;2023-08-12T10:39:14;36.80;71.60
212;DHT22;16228;48.800;9.002;2023-08-12T10:41:50;37.10;68.30
212;DHT22;16228;48.800;9.002;2023-08-12T10:44:20;37.10;70.00
212;DHT22;16228;48.800;9.002;2023-08-12T10:46:53;37.70;75.30
212;DHT22;16228;48.800;9.002;2023-08-12T10:49:21;37.40;67.50
212;DHT22;16228;48.800;9.002;2023-08-12T10:51:50;36.80;72.70
212;DHT22;16228;48.800;9.002;2023-08-12T10:54:22;37.80;68.00
212;DHT22;16228;48.800;9.002;2023-08-12T10:57:08;39.40;71.00
212;DHT22;16228;48.800;9.002;2023-08-12T10:59:53;40.40;67.90
212;DHT22;16228;48.800;9.002;2023-08-12T11:02:27;41.00;64.80
212;DHT22;16228;48.800;9.002;2023-08-12T11:04:55;41.40;61.70
212;DHT22;16228;48.800;9.002;2023-08-12T11:07:32;42.20;61.70
212;DHT22;16228;48.800;9.002;2023-08-12T11:10:05;41.70;62.40
212;DHT22;16228;48.800;9.002;2023-08-12T11:12:34;40.40;64.60
212;DHT22;16228;48.800;9.002;2023-08-12T11:15:03;39.00;63.70
212;DHT22;16228;48.800;9.002;2023-08-12T11:17:36;37.80;67.80
212;DHT22;16228;48.800;9.002;2023-08-12T11:20:05;36.60;67.40
212;DHT22;16228;48.800;9.002;2023-08-12T11:22:36;35.70;69.20
212;DHT22;16228;48.800;9.002;2023-08-12T11:25:04;34.70;72.90
212;DHT22;16228;48.800;9.002;2023-08-12T11:27:38;34.30;74.20
212;DHT22;16228;48.800;9.002;2023-08-12T11:30:06;34.50;73.40
212;DHT22;16228;48.800;9.002;2023-08-12T11:32:36;35.30;73.50
212;DHT22;16228;48.800;9.002;2023-08-12T11:35:05;37.00;72.50
212;DHT22;16228;48.800;9.002;2023-08-12T11:37:32;38.70;67.50
212;DHT22;16228;48.800;9.002;2023-08-12T11:40:01;39.50;66.40
212;DHT22;16228;48.800;9.002;2023-08-12T11:42:30;39.50;63.20
212;DHT22;16228;48.800;9.002;2023-08-12T11:44:57;38.50;67.50
212;DHT22;16228;48.800;9.002;2023-08-12T11:47:23;37.20;70.20
212;DHT22;16228;48.800;9.002;2023-08-12T11:49:53;36.80;78.50
212;DHT22;16228;48.800;9.002;2023-08-12T11:52:20;37.40;80.70
212;DHT22;16228;48.800;9.002;2023-08-12T11:54:49;37.60;79.00
212;DHT22;16228;48.800;9.002;2023-08-12T11:57:16;36.60;79.70
212;DHT22;16228;48.800;9.002;2023-08-12T11:59:43;35.20;81.90
212;DHT22;16228;48.800;9.002;2023-08-12T12:02:11;33.80;87.00
212;DHT22;16228;48.800;9.002;2023-08-12T12:04:41;32.60;90.00
212;DHT22;16228;48.800;9.002;2023-08-12T12:07:20;31.40;93.40
212;DHT22;16228;48.800;9.002;2023-08-12T12:09:49;30.50;96.10
212;DHT22;16228;48.800;9.002;2023-08-12T12:12:17;29.60;96.90
212;DHT22;16228;48.800;9.002;2023-08-12T12:14:44;28.90;96.90
212;DHT22;16228;48.800;9.002;2023-08-12T12:17:15;28.30;96.90
212;DHT22;16228;48.800;9.002;2023-08-12T12:19:41;27.60;96.90
212;DHT22;16228;48.800;9.002;2023-08-12T12:22:08;26.80;96.90
212;DHT22;16228;48.800;9.002;2023-08-12T12:24:45;26.20;96.90
212;DHT22;16228;48.800;9.002;2023-08-12T12:27:13;25.70;96.90
212;DHT22;16228;48.800;9.002;2023-08-12T12:29:41;25.40;96.90
212;DHT22;16228;48.800;9.002;2023-08-12T12:32:08;25.10;96.90
212;DHT22;16228;48.800;9.002;2023-08-12T12:34:35;24.90;96.90
212;DHT22;16228;48.800;9.002;2023-08-12T12:37:02;24.80;96.90
212;DHT22;16228;48.800;9.002;2023-08-12T12:39:29;24.80;96.90
212;DHT22;16228;48.800;9.002;2023-08-12T12:41:58;24.90;96.90
212;DHT22;16228;48.800;9.002;2023-08-12T12:44:25;24.90;96.90
212;DHT22;16228;48.800;9.002;2023-08-12T12:46:53;24.90;96.90
212;DHT22;16228;48.800;9.002;2023-08-12T12:49:20;24.90;96.90
212;DHT22;16228;48.800;9.002;2023-08-12T12:51:47;24.90;96.90
212;DHT22;16228;48.800;9.002;2023-08-12T12:54:14;25.00;96.90
212;DHT22;16228;48.800;9.002;2023-08-12T12:56:41;25.00;96.90
212;DHT22;16228;48.800;9.002;2023-08-12T12:59:09;25.20;96.90
212;DHT22;16228;48.800;9.002;2023-08-12T13:01:36;25.30;96.90
212;DHT22;16228;48.800;9.002;2023-08-12T13:04:04;25.50;96.90
212;DHT22;16228;48.800;9.002;2023-08-12T13:06:31;25.70;96.90
212;DHT22;16228;48.800;9.002;2023-08-12T13:08:58;25.80;96.90
212;DHT22;16228;48.800;9.002;2023-08-12T13:11:25;25.80;96.90
212;DHT22;16228;48.800;9.002;2023-08-12T13:13:53;25.90;96.90
212;DHT22;16228;48.800;9.002;2023-08-12T13:16:21;25.90;96.90
212;DHT22;16228;48.800;9.002;2023-08-12T13:18:48;25.90;96.90
212;DHT22;16228;48.800;9.002;2023-08-12T13:21:15;25.80;96.90
212;DHT22;16228;48.800;9.002;2023-08-12T13:23:42;25.80;96.90
212;DHT22;16228;48.800;9.002;2023-08-12T13:26:09;25.80;96.90
212;DHT22;16228;48.800;9.002;2023-08-12T13:28:36;25.90;96.90
212;DHT22;16228;48.800;9.002;2023-08-12T13:31:03;26.00;96.90
212;DHT22;16228;48.800;9.002;2023-08-12T13:33:33;26.10;96.90
212;DHT22;16228;48.800;9.002;2023-08-12T13:36:00;26.20;96.90
212;DHT22;16228;48.800;9.002;2023-08-12T13:38:27;26.50;96.90
212;DHT22;16228;48.800;9.002;2023-08-12T13:40:54;27.30;96.90
212;DHT22;16228;48.800;9.002;2023-08-12T13:43:21;28.20;96.90
212;DHT22;16228;48.800;9.002;2023-08-12T13:45:48;28.60;96.90
212;DHT22;16228;48.800;9.002;2023-08-12T13:48:15;28.90;96.90
212;DHT22;16228;48.800;9.002;2023-08-12T13:50:43;29.10;96.90
212;DHT22;16228;48.800;9.002;2023-08-12T13:53:10;29.20;96.90
212;DHT22;16228;48.800;9.002;2023-08-12T13:55:37;29.40;96.90
212;DHT22;16228;48.800;9.002;2023-08-12T13:58:04;29.40;96.90
212;DHT22;16228;48.800;9.002;2023-08-12T14:00:31;29.50;96.90
212;DHT22;16228;48.800;9.002;2023-08-12T14:02:58;29.70;96.90
212;DHT22;16228;48.800;9.002;2023-08-12T14:05:25;29.70;96.90
212;DHT22;16228;48.800;9.002;2023-08-12T14:07:54;29.70;96.90
212;DHT22;16228;48.800;9.002;2023-08-12T14:10:21;29.60;96.90
212;DHT22;16228;48.800;9.002;2023-08-12T14:12:48;29.30;96.90
212;DHT22;16228;48.800;9.002;2023-08-12T14:15:15;28.90;96.90
212;DHT22;16228;48.800;9.002;2023-08-12T14:17:42;28.40;96.90
212;DHT22;16228;48.800;9.002;2023-08-12T14:20:09;28.20;96.90
212;DHT22;16228;48.800;9.002;2023-08-12T14:22:37;28.00;96.90
212;DHT22;16228;48.800;9.002;2023-08-12T14:25:06;27.90;96.90
212;DHT22;16228;48.800;9.002;2023-08-12T14:27:33;27.80;96.90
212;DHT22;16228;48.800;9.002;2023-08-12T14:30:00;27.60;96.90
212;DHT22;16228;48.800;9.002;2023-08-12T14:32:27;27.50;96.90
212;DHT22;16228;48.800;9.002;2023-08-12T14:34:54;27.30;96.90
212;DHT22;16228;48.800;9.002;2023-08-12T14:37:21;27.30;96.90
212;DHT22;16228;48.800;9.002;2023-08-12T14:39:48;27.20;96.90
212;DHT22;16228;48.800;9.002;2023-08-12T14:42:16;27.30;96.90
212;DHT22;16228;48.800;9.002;2023-08-12T14:44:44;27.20;96.90
212;DHT22;16228;48.800;9.002;2023-08-12T14:47:10;27.30;96.90
212;DHT22;16228;48.800;9.002;2023-08-12T14:49:37;27.30;96.90
212;DHT22;16228;48.800;9.002;2023-08-12T14:52:05;27.30;96.90
212;DHT22;16228;48.800;9.002;2023-08-12T14:54:32;27.30;96.90
212;DHT22;16228;48.800;9.002;2023-08-12T14:56:59;27.40;96.90
212;DHT22;16228;48.800;9.002;2023-08-12T14:59:27;27.60;96.90
212;DHT22;16228;48.800;9.002;2023-08-12T15:01:54;27.50;96.90
212;DHT22;16228;48.800;9.002;2023-08-12T15:04:21;27.50;96.90
212;DHT22;16228;48.800;9.002;2023-08-12T15:06:48;27.30;96.90
212;DHT22;16228;48.800;9.002;2023-08-12T15:09:15;27.20;96.90
212;DHT22;16228;48.800;9.002;2023-08-12T15:11:42;27.00;96.90
212;DHT22;16228;48.800;9.002;2023-08-12T15:14:09;26.80;96.90
212;DHT22;16228;48.800;9.002;2023-08-12T15:16:38;26.60;96.90
212;DHT22;16228;48.800;9.002;2023-08-12T15:19:05;26.40;96.90
212;DHT22;16228;48.800;9.002;2023-08-12T15:21:32;26.20;96.90
212;DHT22;16228;48.800;9.002;2023-08-12T15:23:59;26.10;96.90
212;DHT22;16228;48.800;9.002;2023-08-12T15:26:26;26.10;96.90
212;DHT22;16228;48.800;9.002;2023-08-12T15:28:54;26.00;96.90
212;DHT22;16228;48.800;9.002;2023-08-12T15:31:20;26.00;96.90
212;DHT22;16228;48.800;9.002;2023-08-12T15:33:49;25.90;96.90
212;DHT22;16228;48.800;9.002;2023-08-12T15:36:16;25.80;96.90
212;DHT22;16228;48.800;9.002;2023-08-12T15:38:45;25.80;96.90
212;DHT22;16228;48.800;9.002;2023-08-12T15:41:14;25.70;96.90
212;DHT22;16228;48.800;9.002;2023-08-12T15:43:41;25.60;96.90
212;DHT22;16228;48.800;9.002;2023-08-12T15:46:09;25.60;96.90
212;DHT22;16228;48.800;9.002;2023-08-12T15:48:36;25.60;96.90
212;DHT22;16228;48.800;9.002;2023-08-12T15:51:04;25.50;96.90
212;DHT22;16228;48.800;9.002;2023-08-12T15:53:32;25.50;96.90
212;DHT22;16228;48.800;9.002;2023-08-12T15:55:58;25.40;96.90
212;DHT22;16228;48.800;9.002;2023-08-12T15:58:25;25.20;96.90
212;DHT22;16228;48.800;9.002;2023-08-12T16:00:52;25.10;96.90
212;DHT22;16228;48.800;9.002;2023-08-12T16:03:19;25.00;96.90
212;DHT22;16228;48.800;9.002;2023-08-12T16:05:47;24.80;96.90